createdAt,value
2023-01-07T00:01:38.712Z,6.15
2023-01-07T00:04:08.110Z,5.78
2023-01-07T00:06:37.715Z,5.40
2023-01-07T00:09:07.046Z,6.35
2023-01-07T00:11:38.290Z,5.95
2023-01-07T00:14:08.338Z,6.28
2023-01-07T00:16:37.118Z,5.50
2023-01-07T00:19:06.225Z,6.07
2023-01-07T00:21:34.323Z,4.50
2023-01-07T00:24:03.997Z,5.30
2023-01-07T00:26:33.492Z,4.70
2023-01-07T00:29:03.125Z,4.45
2023-01-07T00:31:33.723Z,4.05
2023-01-07T00:34:10.599Z,4.68
2023-01-07T00:36:41.194Z,3.88
2023-01-07T00:39:11.192Z,4.13
2023-01-07T00:41:38.999Z,4.78
2023-01-07T00:44:08.772Z,3.90
2023-01-07T00:46:36.386Z,3.35
2023-01-07T00:49:04.035Z,3.78
2023-01-07T00:51:31.568Z,3.58
2023-01-07T00:53:59.174Z,3.03
2023-01-07T00:56:26.759Z,2.65
2023-01-07T00:58:54.327Z,3.47
2023-01-07T01:01:23.331Z,3.05
2023-01-07T01:03:50.916Z,3.35
2023-01-07T01:06:20.755Z,2.78
2023-01-07T01:08:48.485Z,3.53
2023-01-07T01:11:17.595Z,3.28
2023-01-07T01:13:46.361Z,3.20
2023-01-07T01:16:16.690Z,2.88
2023-01-07T01:18:46.867Z,2.65
2023-01-07T01:21:17.014Z,2.63
2023-01-07T01:23:44.674Z,1.85
2023-01-07T01:26:14.143Z,2.40
2023-01-07T01:28:42.262Z,2.70
2023-01-07T01:31:09.953Z,2.20
2023-01-07T01:33:37.755Z,2.05
2023-01-07T01:36:10.202Z,1.50
2023-01-07T01:38:37.922Z,1.52
2023-01-07T01:41:06.223Z,1.67
2023-01-07T01:43:36.384Z,2.40
2023-01-07T01:46:06.830Z,1.63
2023-01-07T01:48:37.809Z,1.45
2023-01-07T01:51:09.250Z,1.10
2023-01-07T01:53:37.396Z,1.90
2023-01-07T01:56:11.002Z,1.63
2023-01-07T01:58:42.895Z,2.25
2023-01-07T02:01:10.955Z,2.00
2023-01-07T02:06:20.938Z,2.30
2023-01-07T02:08:48.487Z,2.10
2023-01-07T02:11:28.408Z,1.50
2023-01-07T02:14:10.955Z,1.58
2023-01-07T02:16:45.015Z,2.15
2023-01-07T02:19:45.584Z,2.10
2023-01-07T02:22:29.907Z,2.30
2023-01-07T02:25:20.049Z,2.65
2023-01-07T02:28:06.947Z,2.85
2023-01-07T02:31:22.965Z,2.92
2023-01-07T02:33:59.203Z,2.33
2023-01-07T02:36:45.948Z,2.42
2023-01-07T02:39:24.411Z,2.58
2023-01-07T02:41:58.577Z,3.13
2023-01-07T02:44:35.043Z,2.85
2023-01-07T02:47:10.553Z,3.00
2023-01-07T02:49:39.420Z,2.35
2023-01-07T02:52:18.647Z,2.30
2023-01-07T02:54:50.744Z,1.63
2023-01-07T02:57:35.901Z,2.10
2023-01-07T03:00:29.080Z,2.10
2023-01-07T03:03:21.836Z,2.30
2023-01-07T03:06:05.264Z,3.22
2023-01-07T03:08:47.976Z,2.30
2023-01-07T03:11:16.079Z,2.47
2023-01-07T03:13:49.485Z,2.65
2023-01-07T03:16:19.202Z,2.47
2023-01-07T03:18:51.137Z,2.35
2023-01-07T03:21:22.722Z,2.25
2023-01-07T03:23:57.661Z,2.25
2023-01-07T03:26:30.924Z,2.20
2023-01-07T03:29:00.809Z,2.58
2023-01-07T03:31:30.449Z,2.60
2023-01-07T03:34:02.528Z,2.60
2023-01-07T03:36:37.816Z,2.17
2023-01-07T03:39:08.079Z,2.08
2023-01-07T03:41:53.279Z,2.63
2023-01-07T03:44:20.910Z,2.33
2023-01-07T03:46:48.601Z,2.05
2023-01-07T03:49:16.269Z,2.20
2023-01-07T03:51:45.964Z,1.83
2023-01-07T03:54:13.552Z,2.47
2023-01-07T03:56:41.204Z,2.38
2023-01-07T03:59:08.884Z,2.15
2023-01-07T04:01:36.597Z,1.98
2023-01-07T04:04:04.566Z,1.73
2023-01-07T04:06:32.277Z,1.88
2023-01-07T04:09:01.163Z,1.80
2023-01-07T04:11:28.683Z,2.10
2023-01-07T04:13:58.206Z,2.80
2023-01-07T04:16:25.798Z,1.95
2023-01-07T04:18:53.417Z,1.75
2023-01-07T04:21:20.966Z,2.00
2023-01-07T04:23:48.527Z,2.10
2023-01-07T04:26:17.423Z,2.17
2023-01-07T04:28:45.013Z,3.47
2023-01-07T04:31:12.680Z,3.15
2023-01-07T04:33:40.268Z,2.00
2023-01-07T04:36:08.312Z,2.30
2023-01-07T04:38:35.869Z,2.08
2023-01-07T04:41:03.883Z,1.90
2023-01-07T04:43:32.785Z,2.35
2023-01-07T04:46:00.456Z,1.75
2023-01-07T04:48:28.092Z,1.90
2023-01-07T04:50:55.716Z,1.73
2023-01-07T04:53:23.283Z,1.58
2023-01-07T04:55:51.654Z,2.35
2023-01-07T04:58:19.229Z,1.67
2023-01-07T05:00:48.243Z,1.65
2023-01-07T05:03:15.950Z,1.45
2023-01-07T05:05:43.493Z,1.30
2023-01-07T05:08:11.037Z,1.38
2023-01-07T05:10:39.113Z,1.30
2023-01-07T05:13:07.273Z,1.30
2023-01-07T05:15:34.934Z,1.35
2023-01-07T05:18:05.234Z,1.15
2023-01-07T05:20:32.975Z,1.67
2023-01-07T05:23:00.604Z,1.00
2023-01-07T05:25:28.439Z,1.77
2023-01-07T05:27:56.021Z,1.13
2023-01-07T05:30:23.615Z,1.30
2023-01-07T05:32:51.141Z,1.20
2023-01-07T05:35:20.239Z,0.80
2023-01-07T05:37:47.823Z,1.10
2023-01-07T05:40:16.566Z,1.27
2023-01-07T05:42:44.135Z,1.05
2023-01-07T05:45:12.649Z,1.20
2023-01-07T05:47:40.232Z,1.17
2023-01-07T05:50:08.392Z,1.65
2023-01-07T05:52:37.304Z,0.98
2023-01-07T05:55:05.789Z,1.05
2023-01-07T05:57:33.694Z,1.45
2023-01-07T06:00:01.338Z,1.02
2023-01-07T06:02:28.916Z,1.33
2023-01-07T06:04:56.549Z,1.05
2023-01-07T06:07:24.220Z,0.85
2023-01-07T06:09:53.092Z,1.60
2023-01-07T06:12:20.760Z,1.08
2023-01-07T06:14:49.091Z,1.58
2023-01-07T06:17:16.637Z,1.52
2023-01-07T06:19:44.177Z,1.67
2023-01-07T06:22:11.772Z,1.48
2023-01-07T06:24:39.325Z,1.63
2023-01-07T06:27:08.282Z,1.33
2023-01-07T06:29:36.465Z,1.23
2023-01-07T06:32:04.095Z,1.63
2023-01-07T06:34:31.670Z,1.50
2023-01-07T06:36:59.336Z,1.40
2023-01-07T06:39:26.985Z,1.17
2023-01-07T06:41:54.600Z,1.80
2023-01-07T06:44:23.540Z,1.63
2023-01-07T06:46:51.103Z,1.70
2023-01-07T06:49:18.670Z,1.52
2023-01-07T06:51:46.282Z,1.65
2023-01-07T06:54:14.059Z,1.63
2023-01-07T06:56:41.706Z,1.65
2023-01-07T06:59:09.325Z,1.95
2023-01-07T07:01:38.414Z,1.40
2023-01-07T07:04:06.129Z,1.42
2023-01-07T07:06:33.940Z,1.75
2023-01-07T07:09:01.553Z,1.75
2023-01-07T07:11:29.111Z,1.45
2023-01-07T07:13:56.683Z,1.20
2023-01-07T07:16:24.392Z,2.00
2023-01-07T07:18:53.838Z,1.85
2023-01-07T07:21:21.480Z,1.70
2023-01-07T07:23:49.043Z,1.80
2023-01-07T07:26:16.585Z,1.90
2023-01-07T07:28:44.640Z,2.05
2023-01-07T07:31:12.699Z,1.65
2023-01-07T07:33:40.288Z,2.25
2023-01-07T07:36:10.007Z,2.38
2023-01-07T07:38:37.579Z,2.50
2023-01-07T07:41:05.383Z,2.20
2023-01-07T07:43:35.821Z,2.33
2023-01-07T07:46:03.573Z,1.67
2023-01-07T07:48:31.235Z,1.35
2023-01-07T07:50:58.811Z,2.20
2023-01-07T07:53:27.783Z,2.22
2023-01-07T07:55:55.344Z,2.00
2023-01-07T07:58:23.026Z,2.55
2023-01-07T08:00:50.622Z,2.33
2023-01-07T08:03:18.278Z,2.05
2023-01-07T08:05:46.413Z,1.83
2023-01-07T08:08:15.703Z,2.20
2023-01-07T08:10:45.244Z,2.13
2023-01-07T08:13:12.899Z,1.85
2023-01-07T08:15:40.510Z,1.98
2023-01-07T08:18:10.527Z,2.25
2023-01-07T08:20:38.458Z,2.50
2023-01-07T08:23:07.991Z,1.92
2023-01-07T08:25:36.952Z,2.28
2023-01-07T08:28:06.281Z,2.50
2023-01-07T08:30:34.051Z,2.33
2023-01-07T08:33:02.072Z,2.33
2023-01-07T08:35:29.675Z,2.92
2023-01-07T08:38:02.388Z,2.80
2023-01-07T08:40:29.995Z,2.50
2023-01-07T08:42:59.888Z,1.83
2023-01-07T08:45:31.835Z,2.60
2023-01-07T08:48:00.532Z,2.83
2023-01-07T08:50:30.150Z,2.75
2023-01-07T08:52:58.176Z,2.30
2023-01-07T08:55:26.059Z,1.85
2023-01-07T08:57:54.988Z,2.38
2023-01-07T09:00:23.158Z,2.65
2023-01-07T09:02:52.230Z,2.78
2023-01-07T09:05:20.039Z,2.30
2023-01-07T09:07:47.697Z,2.50
2023-01-07T09:10:15.348Z,2.78
2023-01-07T09:12:43.019Z,2.55
2023-01-07T09:15:12.461Z,2.83
2023-01-07T09:17:40.065Z,6.22
2023-01-07T09:20:10.375Z,6.35
2023-01-07T09:22:38.538Z,8.80
2023-01-07T09:25:06.891Z,6.10
2023-01-07T09:27:34.641Z,3.30
2023-01-07T09:30:02.360Z,2.63
2023-01-07T09:32:30.312Z,2.40
2023-01-07T09:34:57.937Z,2.20
2023-01-07T09:37:26.907Z,2.53
2023-01-07T09:39:54.471Z,2.55
2023-01-07T09:42:33.753Z,1.92
2023-01-07T09:45:17.389Z,1.88
2023-01-07T09:47:49.319Z,2.42
2023-01-07T09:50:25.457Z,2.53
2023-01-07T09:52:58.650Z,2.83
2023-01-07T09:55:32.258Z,2.33
2023-01-07T09:58:00.371Z,2.85
2023-01-07T10:00:29.145Z,3.28
2023-01-07T10:03:11.777Z,2.25
2023-01-07T10:05:47.985Z,2.25
2023-01-07T10:08:31.133Z,2.90
2023-01-07T10:11:09.945Z,2.40
2023-01-07T10:13:51.359Z,2.90
2023-01-07T10:16:24.177Z,2.08
2023-01-07T10:18:59.707Z,2.33
2023-01-07T10:21:37.872Z,1.98
2023-01-07T10:24:16.962Z,1.90
2023-01-07T10:26:49.131Z,2.00
2023-01-07T10:29:22.836Z,1.50
2023-01-07T10:31:52.334Z,1.70
2023-01-07T10:34:25.815Z,1.50
2023-01-07T10:37:02.537Z,1.83
2023-01-07T10:39:40.914Z,1.50
2023-01-07T10:42:16.453Z,1.25
2023-01-07T10:45:26.027Z,1.50
2023-01-07T10:48:15.671Z,1.10
2023-01-07T10:50:55.634Z,1.58
2023-01-07T10:53:32.641Z,1.70
2023-01-07T10:56:11.539Z,1.90
2023-01-07T10:58:41.316Z,1.63
2023-01-07T11:01:14.521Z,1.50
2023-01-07T11:03:43.439Z,1.60
2023-01-07T11:06:15.254Z,1.63
2023-01-07T11:08:43.941Z,1.25
2023-01-07T11:11:16.454Z,1.60
2023-01-07T11:13:52.482Z,1.70
2023-01-07T11:16:24.573Z,1.80
2023-01-07T11:18:58.492Z,1.33
2023-01-07T11:21:43.416Z,1.20
2023-01-07T11:24:35.934Z,1.50
2023-01-07T11:27:07.725Z,1.58
2023-01-07T11:29:40.113Z,1.50
2023-01-07T11:32:21.161Z,1.40
2023-01-07T11:34:56.947Z,1.35
2023-01-07T11:37:36.293Z,1.52
2023-01-07T11:40:17.702Z,2.22
2023-01-07T11:42:51.048Z,2.95
2023-01-07T11:45:21.562Z,2.33
2023-01-07T11:47:57.203Z,2.08
2023-01-07T11:50:28.367Z,1.50
2023-01-07T11:52:58.166Z,2.13
2023-01-07T11:55:26.182Z,1.55
2023-01-07T11:58:28.711Z,1.30
2023-01-07T12:00:43.689Z,1.33
2023-01-07T12:03:13.634Z,1.00
2023-01-07T12:05:45.507Z,0.80
2023-01-07T12:08:21.936Z,0.70
2023-01-07T12:10:56.196Z,1.38
2023-01-07T12:13:28.218Z,0.90
2023-01-07T12:15:59.656Z,1.35
2023-01-07T12:18:43.091Z,1.08
2023-01-07T12:21:29.119Z,1.00
2023-01-07T12:24:08.043Z,1.00
2023-01-07T12:26:42.115Z,0.80
2023-01-07T12:29:22.936Z,0.85
2023-01-07T12:32:05.632Z,1.02
2023-01-07T12:34:42.921Z,1.10
2023-01-07T12:37:18.678Z,1.15
2023-01-07T12:39:47.413Z,1.02
2023-01-07T12:42:19.827Z,1.38
2023-01-07T12:44:52.977Z,1.50
2023-01-07T12:47:31.154Z,1.42
2023-01-07T12:50:05.501Z,1.00
2023-01-07T12:52:44.634Z,1.10
2023-01-07T12:55:20.705Z,1.35
2023-01-07T12:58:00.674Z,1.15
2023-01-07T13:00:34.213Z,1.23
2023-01-07T13:03:16.263Z,1.00
2023-01-07T13:05:49.569Z,1.13
2023-01-07T13:08:24.579Z,2.13
2023-01-07T13:10:57.627Z,1.30
2023-01-07T13:13:32.140Z,1.70
2023-01-07T13:16:02.404Z,2.00
2023-01-07T13:18:31.207Z,2.10
2023-01-07T13:21:06.762Z,1.90
2023-01-07T13:24:02.055Z,1.77
2023-01-07T13:26:40.589Z,1.63
2023-01-07T13:29:28.683Z,1.80
2023-01-07T13:32:25.295Z,1.38
2023-01-07T13:35:11.043Z,1.45
2023-01-07T13:37:59.710Z,1.52
2023-01-07T13:40:43.755Z,1.10
2023-01-07T13:43:31.574Z,1.63
2023-01-07T13:46:03.068Z,1.10
2023-01-07T13:48:34.699Z,1.77
2023-01-07T13:51:06.370Z,1.52
2023-01-07T13:53:46.831Z,1.35
2023-01-07T13:56:32.492Z,1.10
2023-01-07T13:59:01.070Z,1.13
2023-01-07T14:01:33.035Z,1.20
2023-01-07T14:04:51.297Z,2.00
2023-01-07T14:07:23.785Z,1.80
2023-01-07T14:09:59.238Z,2.22
2023-01-07T14:13:06.081Z,1.80
2023-01-07T14:16:08.619Z,1.83
2023-01-07T14:19:00.663Z,2.38
2023-01-07T14:21:46.235Z,2.92
2023-01-07T14:24:32.185Z,4.47
2023-01-07T14:27:30.415Z,2.72
2023-01-07T14:30:21.055Z,1.60
2023-01-07T14:33:06.133Z,2.17
2023-01-07T14:35:46.943Z,3.65
2023-01-07T14:38:58.779Z,4.03
2023-01-07T14:41:37.553Z,1.85
2023-01-07T14:44:35.289Z,1.15
2023-01-07T14:47:16.233Z,1.65
2023-01-07T14:50:17.791Z,2.10
2023-01-07T14:53:42.079Z,1.52
2023-01-07T14:56:34.563Z,1.13
2023-01-07T14:59:30.155Z,1.65
2023-01-07T15:02:40.177Z,1.50
2023-01-07T15:05:45.716Z,1.10
2023-01-07T15:08:38.805Z,3.55
2023-01-07T15:11:34.191Z,2.30
2023-01-07T15:14:32.488Z,1.83
2023-01-07T15:17:05.576Z,1.83
2023-01-07T15:19:43.535Z,2.17
2023-01-07T15:22:36.318Z,2.35
2023-01-07T15:25:23.168Z,2.22
2023-01-07T15:28:02.150Z,2.53
2023-01-07T15:31:10.895Z,2.15
2023-01-07T15:34:10.229Z,1.77
2023-01-07T15:36:55.333Z,2.00
2023-01-07T15:39:35.218Z,1.48
2023-01-07T15:42:19.488Z,1.75
2023-01-07T15:44:52.428Z,1.65
2023-01-07T15:47:35.248Z,1.77
2023-01-07T15:50:23.826Z,1.63
2023-01-07T15:52:53.062Z,1.77
2023-01-07T15:55:25.191Z,1.30
2023-01-07T15:57:55.506Z,1.20
2023-01-07T16:00:23.361Z,1.80
2023-01-07T16:02:53.194Z,2.97
2023-01-07T16:05:21.071Z,1.60
2023-01-07T16:07:54.890Z,2.50
2023-01-07T16:10:25.543Z,2.38
2023-01-07T16:12:55.503Z,2.22
2023-01-07T16:15:25.409Z,1.92
2023-01-07T16:17:55.806Z,1.35
2023-01-07T16:20:29.250Z,1.23
2023-01-07T16:23:20.104Z,1.30
2023-01-07T16:25:51.467Z,0.98
2023-01-07T16:28:22.400Z,0.82
2023-01-07T16:30:52.092Z,1.17
2023-01-07T16:33:23.879Z,1.42
2023-01-07T16:35:53.419Z,1.40
2023-01-07T16:38:21.755Z,2.22
2023-01-07T16:40:50.671Z,1.67
2023-01-07T16:43:48.506Z,1.45
2023-01-07T16:46:23.309Z,1.85
2023-01-07T16:49:29.567Z,1.20
2023-01-07T16:52:05.943Z,1.50
2023-01-07T16:54:37.145Z,2.03
2023-01-07T16:57:06.845Z,1.40
2023-01-07T16:59:37.222Z,1.25
2023-01-07T17:02:13.659Z,1.67
2023-01-07T17:04:42.720Z,1.08
2023-01-07T17:07:19.719Z,1.33
2023-01-07T17:09:47.411Z,1.40
2023-01-07T17:12:28.285Z,1.65
2023-01-07T17:14:55.934Z,2.50
2023-01-07T17:17:30.477Z,1.80
2023-01-07T17:20:17.316Z,1.50
2023-01-07T17:22:45.177Z,1.52
2023-01-07T17:25:15.201Z,1.92
2023-01-07T17:27:47.378Z,3.17
2023-01-07T17:30:24.876Z,2.53
2023-01-07T17:32:59.930Z,1.60
2023-01-07T17:35:46.351Z,1.70
2023-01-07T17:38:20.758Z,1.55
2023-01-07T17:40:58.120Z,1.33
2023-01-07T17:43:39.187Z,1.92
2023-01-07T17:46:18.920Z,2.53
2023-01-07T17:48:50.368Z,2.55
2023-01-07T17:51:27.446Z,2.80
2023-01-07T17:54:00.781Z,1.75
2023-01-07T17:56:28.949Z,2.00
2023-01-07T17:58:58.862Z,3.08
2023-01-07T18:01:28.838Z,4.75
2023-01-07T18:03:58.824Z,4.82
2023-01-07T18:06:36.227Z,3.33
2023-01-07T18:09:13.754Z,4.03
2023-01-07T18:12:03.966Z,3.38
2023-01-07T18:14:38.281Z,3.65
2023-01-07T18:17:14.069Z,2.70
2023-01-07T18:19:46.785Z,2.83
2023-01-07T18:22:20.437Z,2.60
2023-01-07T18:24:53.027Z,2.30
2023-01-07T18:27:29.427Z,2.45
2023-01-07T18:30:01.192Z,2.75
2023-01-07T18:32:32.861Z,2.75
2023-01-07T18:35:10.839Z,2.50
2023-01-07T18:37:49.963Z,2.45
2023-01-07T18:40:23.418Z,2.08
2023-01-07T18:42:58.924Z,1.38
2023-01-07T18:45:37.919Z,1.60
2023-01-07T18:48:13.517Z,2.67
2023-01-07T18:50:47.935Z,3.33
2023-01-07T18:53:29.929Z,2.70
2023-01-07T18:56:04.560Z,2.58
2023-01-07T18:58:42.632Z,2.85
2023-01-07T19:01:19.867Z,2.20
2023-01-07T19:03:53.728Z,2.33
2023-01-07T19:06:30.683Z,2.33
2023-01-07T19:12:21.363Z,2.53
2023-01-07T19:15:20.492Z,2.72
2023-01-07T19:18:11.210Z,2.72
2023-01-07T19:20:46.721Z,2.58
2023-01-07T19:23:29.836Z,2.65
2023-01-07T19:26:48.524Z,1.95
2023-01-07T19:29:23.958Z,2.58
2023-01-07T19:32:00.908Z,3.00
2023-01-07T19:34:40.296Z,3.10
2023-01-07T19:37:37.027Z,2.72
2023-01-07T19:40:19.837Z,2.58
2023-01-07T19:43:01.307Z,2.42
2023-01-07T19:45:48.442Z,2.75
2023-01-07T19:48:27.950Z,2.90
2023-01-07T19:51:06.242Z,2.80
2023-01-07T19:53:42.773Z,2.20
2023-01-07T19:56:24.648Z,2.35
2023-01-07T19:59:02.840Z,2.42
2023-01-07T20:01:55.625Z,2.50
2023-01-07T20:04:33.503Z,2.70
2023-01-07T20:07:18.528Z,2.80
2023-01-07T20:09:54.330Z,2.47
2023-01-07T20:12:38.432Z,2.30
2023-01-07T20:15:18.635Z,2.58
2023-01-07T20:17:59.186Z,2.45
2023-01-07T20:20:42.109Z,2.25
2023-01-07T20:23:23.401Z,2.03
2023-01-07T20:25:52.474Z,2.17
2023-01-07T20:28:24.353Z,2.97
2023-01-07T20:31:09.615Z,2.25
2023-01-07T20:34:07.032Z,2.95
2023-01-07T20:36:50.953Z,2.50
2023-01-07T20:39:24.129Z,3.72
2023-01-07T20:41:56.519Z,2.30
2023-01-07T20:44:41.504Z,2.40
2023-01-07T20:47:19.448Z,2.45
2023-01-07T20:50:05.570Z,3.13
2023-01-07T20:52:59.476Z,2.60
2023-01-07T20:55:36.596Z,3.17
2023-01-07T20:58:08.614Z,2.13
2023-01-07T21:00:48.216Z,2.53
2023-01-07T21:03:33.161Z,2.25
2023-01-07T21:06:31.272Z,2.88
2023-01-07T21:09:12.065Z,2.95
2023-01-07T21:12:05.742Z,2.70
2023-01-07T21:14:33.763Z,2.30
2023-01-07T21:17:04.265Z,1.77
2023-01-07T21:19:37.406Z,2.72
2023-01-07T21:22:07.504Z,2.42
2023-01-07T21:24:40.505Z,3.35
2023-01-07T21:27:20.976Z,2.75
2023-01-07T21:29:51.569Z,3.28
2023-01-07T21:32:19.113Z,6.05
2023-01-07T21:34:48.394Z,4.32
2023-01-07T21:37:15.966Z,4.97
2023-01-07T21:39:43.542Z,4.50
2023-01-07T21:42:11.049Z,3.13
2023-01-07T21:44:38.638Z,3.17
2023-01-07T21:47:06.519Z,3.38
2023-01-07T21:49:34.058Z,3.08
2023-01-07T21:52:03.028Z,2.55
2023-01-07T21:54:30.662Z,2.53
2023-01-07T21:56:58.259Z,2.72
2023-01-07T21:59:25.844Z,2.40
2023-01-07T22:01:53.543Z,3.30
2023-01-07T22:04:21.404Z,2.40
2023-01-07T22:06:49.028Z,2.40
2023-01-07T22:09:17.945Z,2.80
2023-01-07T22:11:45.514Z,2.35
2023-01-07T22:14:15.536Z,2.55
2023-01-07T22:16:43.612Z,2.60
2023-01-07T22:19:12.176Z,3.00
2023-01-07T22:21:40.150Z,3.22
2023-01-07T22:24:08.295Z,2.63
2023-01-07T22:26:37.187Z,2.72
2023-01-07T22:29:09.022Z,2.83
2023-01-07T22:31:37.989Z,1.83
2023-01-07T22:34:06.804Z,2.38
2023-01-07T22:36:41.851Z,1.92
2023-01-07T22:39:14.332Z,2.30
2023-01-07T22:41:43.467Z,2.45
2023-01-07T22:44:15.498Z,2.40
2023-01-07T22:46:45.233Z,2.05
2023-01-07T22:49:13.490Z,2.85
2023-01-07T22:51:47.529Z,2.00
2023-01-07T22:54:17.072Z,2.33
2023-01-07T22:56:46.567Z,3.00
2023-01-07T22:59:14.141Z,6.10
2023-01-07T23:01:41.697Z,4.72
2023-01-07T23:04:10.045Z,4.50
2023-01-07T23:06:37.665Z,3.30
2023-01-07T23:09:05.688Z,4.82
2023-01-07T23:11:48.641Z,2.97
2023-01-07T23:14:19.373Z,1.92
2023-01-07T23:16:47.684Z,1.67
2023-01-07T23:19:16.689Z,2.72
2023-01-07T23:21:45.780Z,2.50
2023-01-07T23:24:14.868Z,3.05
2023-01-07T23:26:43.455Z,2.20
2023-01-07T23:29:11.098Z,1.83
2023-01-07T23:31:40.061Z,2.45
2023-01-07T23:34:07.934Z,2.70
2023-01-07T23:36:36.837Z,2.22
2023-01-07T23:39:04.860Z,2.55
2023-01-07T23:41:32.937Z,2.55
2023-01-07T23:44:00.540Z,1.88
2023-01-07T23:46:28.128Z,1.92
2023-01-07T23:48:57.016Z,2.00
2023-01-07T23:51:24.652Z,2.15
2023-01-07T23:53:52.583Z,2.58
2023-01-07T23:56:21.926Z,2.30
2023-01-07T23:58:50.428Z,1.70
